sensor_id;sensor_type;location;lat;lon;timestamp;P1;durP1;ratioP1;P2;durP2;ratioP2
69979;SDS011;57318;56.232;43.944;2022-12-10T00:01:25;7.43;;;3.90;;
69979;SDS011;57318;56.232;43.944;2022-12-10T00:03:51;8.50;;;4.28;;
69979;SDS011;57318;56.232;43.944;2022-12-10T00:06:25;12.35;;;4.68;;
69979;SDS011;57318;56.232;43.944;2022-12-10T00:08:52;9.82;;;4.38;;
69979;SDS011;57318;56.232;43.944;2022-12-10T00:11:18;8.27;;;4.07;;
69979;SDS011;57318;56.232;43.944;2022-12-10T00:13:45;8.55;;;3.75;;
69979;SDS011;57318;56.232;43.944;2022-12-10T00:16:13;10.10;;;4.43;;
69979;SDS011;57318;56.232;43.944;2022-12-10T00:18:40;10.57;;;4.25;;
69979;SDS011;57318;56.232;43.944;2022-12-10T00:21:07;7.93;;;4.25;;
69979;SDS011;57318;56.232;43.944;2022-12-10T00:23:35;9.63;;;4.53;;
69979;SDS011;57318;56.232;43.944;2022-12-10T00:28:28;9.95;;;4.90;;
69979;SDS011;57318;56.232;43.944;2022-12-10T00:30:53;7.43;;;4.03;;
69979;SDS011;57318;56.232;43.944;2022-12-10T00:33:19;13.40;;;4.53;;
69979;SDS011;57318;56.232;43.944;2022-12-10T00:35:44;7.77;;;3.80;;
69979;SDS011;57318;56.232;43.944;2022-12-10T00:38:10;6.77;;;3.53;;
69979;SDS011;57318;56.232;43.944;2022-12-10T00:40:35;8.67;;;4.00;;
69979;SDS011;57318;56.232;43.944;2022-12-10T00:43:01;10.57;;;3.97;;
69979;SDS011;57318;56.232;43.944;2022-12-10T00:45:26;10.83;;;3.90;;
69979;SDS011;57318;56.232;43.944;2022-12-10T00:47:52;10.77;;;4.37;;
69979;SDS011;57318;56.232;43.944;2022-12-10T00:50:17;7.60;;;4.07;;
69979;SDS011;57318;56.232;43.944;2022-12-10T00:52:43;8.53;;;4.33;;
69979;SDS011;57318;56.232;43.944;2022-12-10T00:55:08;7.77;;;4.10;;
69979;SDS011;57318;56.232;43.944;2022-12-10T00:57:34;7.47;;;3.20;;
69979;SDS011;57318;56.232;43.944;2022-12-10T00:59:59;8.07;;;4.47;;
69979;SDS011;57318;56.232;43.944;2022-12-10T01:02:25;6.43;;;3.37;;
69979;SDS011;57318;56.232;43.944;2022-12-10T01:04:54;8.17;;;4.40;;
69979;SDS011;57318;56.232;43.944;2022-12-10T01:07:19;5.55;;;3.55;;
69979;SDS011;57318;56.232;43.944;2022-12-10T01:09:45;7.97;;;4.03;;
69979;SDS011;57318;56.232;43.944;2022-12-10T01:12:10;10.07;;;4.17;;
69979;SDS011;57318;56.232;43.944;2022-12-10T01:14:36;9.17;;;3.67;;
69979;SDS011;57318;56.232;43.944;2022-12-10T01:17:03;10.40;;;3.93;;
69979;SDS011;57318;56.232;43.944;2022-12-10T01:19:30;7.93;;;3.50;;
69979;SDS011;57318;56.232;43.944;2022-12-10T01:21:57;7.15;;;4.13;;
69979;SDS011;57318;56.232;43.944;2022-12-10T01:24:23;5.30;;;3.43;;
69979;SDS011;57318;56.232;43.944;2022-12-10T01:26:51;6.70;;;3.03;;
69979;SDS011;57318;56.232;43.944;2022-12-10T01:29:17;5.55;;;2.85;;
69979;SDS011;57318;56.232;43.944;2022-12-10T01:31:43;9.63;;;4.25;;
69979;SDS011;57318;56.232;43.944;2022-12-10T01:34:12;4.57;;;2.83;;
69979;SDS011;57318;56.232;43.944;2022-12-10T01:36:39;11.05;;;4.20;;
69979;SDS011;57318;56.232;43.944;2022-12-10T01:39:08;7.22;;;4.15;;
69979;SDS011;57318;56.232;43.944;2022-12-10T01:41:40;9.75;;;4.53;;
69979;SDS011;57318;56.232;43.944;2022-12-10T01:46:37;6.70;;;3.60;;
69979;SDS011;57318;56.232;43.944;2022-12-10T01:49:09;6.95;;;3.63;;
69979;SDS011;57318;56.232;43.944;2022-12-10T01:51:40;6.95;;;3.30;;
69979;SDS011;57318;56.232;43.944;2022-12-10T01:54:09;8.38;;;4.18;;
69979;SDS011;57318;56.232;43.944;2022-12-10T01:56:38;7.72;;;3.72;;
69979;SDS011;57318;56.232;43.944;2022-12-10T01:59:06;10.80;;;4.22;;
69979;SDS011;57318;56.232;43.944;2022-12-10T02:06:48;6.05;;;3.50;;
69979;SDS011;57318;56.232;43.944;2022-12-10T02:09:24;6.53;;;3.70;;
69979;SDS011;57318;56.232;43.944;2022-12-10T02:22:25;8.07;;;4.20;;
69979;SDS011;57318;56.232;43.944;2022-12-10T02:24:56;6.82;;;2.88;;
69979;SDS011;57318;56.232;43.944;2022-12-10T02:30:17;5.47;;;3.40;;
69979;SDS011;57318;56.232;43.944;2022-12-10T02:32:44;7.90;;;3.75;;
69979;SDS011;57318;56.232;43.944;2022-12-10T02:35:18;9.10;;;3.92;;
69979;SDS011;57318;56.232;43.944;2022-12-10T02:37:51;5.45;;;3.00;;
69979;SDS011;57318;56.232;43.944;2022-12-10T02:40:26;7.55;;;4.03;;
69979;SDS011;57318;56.232;43.944;2022-12-10T02:42:56;7.40;;;3.50;;
69979;SDS011;57318;56.232;43.944;2022-12-10T02:45:22;8.63;;;4.27;;
69979;SDS011;57318;56.232;43.944;2022-12-10T02:47:50;9.60;;;4.40;;
69979;SDS011;57318;56.232;43.944;2022-12-10T02:50:20;6.72;;;4.05;;
69979;SDS011;57318;56.232;43.944;2022-12-10T02:52:46;9.43;;;4.63;;
69979;SDS011;57318;56.232;43.944;2022-12-10T02:55:12;8.37;;;4.33;;
69979;SDS011;57318;56.232;43.944;2022-12-10T03:00:17;7.78;;;3.90;;
69979;SDS011;57318;56.232;43.944;2022-12-10T03:08:20;12.60;;;4.43;;
69979;SDS011;57318;56.232;43.944;2022-12-10T03:10:50;10.40;;;4.25;;
69979;SDS011;57318;56.232;43.944;2022-12-10T03:13:24;7.95;;;3.88;;
69979;SDS011;57318;56.232;43.944;2022-12-10T03:16:04;7.10;;;3.22;;
69979;SDS011;57318;56.232;43.944;2022-12-10T03:18:31;6.38;;;4.13;;
69979;SDS011;57318;56.232;43.944;2022-12-10T03:21:01;9.80;;;4.40;;
69979;SDS011;57318;56.232;43.944;2022-12-10T03:23:29;10.05;;;4.28;;
69979;SDS011;57318;56.232;43.944;2022-12-10T03:25:57;8.30;;;3.78;;
69979;SDS011;57318;56.232;43.944;2022-12-10T03:28:24;7.60;;;3.90;;
69979;SDS011;57318;56.232;43.944;2022-12-10T03:30:51;7.97;;;4.07;;
69979;SDS011;57318;56.232;43.944;2022-12-10T03:33:19;5.53;;;3.35;;
69979;SDS011;57318;56.232;43.944;2022-12-10T03:35:45;7.40;;;3.70;;
69979;SDS011;57318;56.232;43.944;2022-12-10T03:38:11;11.57;;;5.75;;
69979;SDS011;57318;56.232;43.944;2022-12-10T03:40:39;6.43;;;3.88;;
69979;SDS011;57318;56.232;43.944;2022-12-10T03:43:04;5.93;;;3.37;;
69979;SDS011;57318;56.232;43.944;2022-12-10T03:45:30;8.17;;;4.20;;
69979;SDS011;57318;56.232;43.944;2022-12-10T03:47:55;6.30;;;3.43;;
69979;SDS011;57318;56.232;43.944;2022-12-10T03:50:21;6.27;;;3.53;;
69979;SDS011;57318;56.232;43.944;2022-12-10T03:52:46;8.60;;;3.63;;
69979;SDS011;57318;56.232;43.944;2022-12-10T03:55:12;8.73;;;3.80;;
69979;SDS011;57318;56.232;43.944;2022-12-10T03:57:38;6.90;;;3.42;;
69979;SDS011;57318;56.232;43.944;2022-12-10T04:00:04;7.47;;;3.23;;
69979;SDS011;57318;56.232;43.944;2022-12-10T04:02:30;6.13;;;3.22;;
69979;SDS011;57318;56.232;43.944;2022-12-10T04:04:56;8.77;;;4.03;;
69979;SDS011;57318;56.232;43.944;2022-12-10T04:07:21;7.67;;;4.07;;
69979;SDS011;57318;56.232;43.944;2022-12-10T04:09:47;8.00;;;3.70;;
69979;SDS011;57318;56.232;43.944;2022-12-10T04:12:13;8.77;;;3.93;;
69979;SDS011;57318;56.232;43.944;2022-12-10T04:14:38;7.17;;;3.37;;
69979;SDS011;57318;56.232;43.944;2022-12-10T04:17:22;7.03;;;3.90;;
69979;SDS011;57318;56.232;43.944;2022-12-10T04:19:48;5.93;;;3.50;;
69979;SDS011;57318;56.232;43.944;2022-12-10T04:22:13;7.83;;;4.10;;
69979;SDS011;57318;56.232;43.944;2022-12-10T04:24:58;8.70;;;3.80;;
69979;SDS011;57318;56.232;43.944;2022-12-10T04:27:42;6.32;;;3.75;;
69979;SDS011;57318;56.232;43.944;2022-12-10T04:30:09;10.60;;;3.77;;
69979;SDS011;57318;56.232;43.944;2022-12-10T04:32:36;7.70;;;3.10;;
69979;SDS011;57318;56.232;43.944;2022-12-10T04:35:02;7.37;;;3.50;;
69979;SDS011;57318;56.232;43.944;2022-12-10T04:37:28;11.25;;;4.47;;
69979;SDS011;57318;56.232;43.944;2022-12-10T04:39:54;8.17;;;3.77;;
69979;SDS011;57318;56.232;43.944;2022-12-10T04:42:20;11.40;;;3.70;;
69979;SDS011;57318;56.232;43.944;2022-12-10T04:44:46;7.25;;;3.53;;
69979;SDS011;57318;56.232;43.944;2022-12-10T04:47:12;7.07;;;4.03;;
69979;SDS011;57318;56.232;43.944;2022-12-10T04:49:38;8.00;;;3.33;;
69979;SDS011;57318;56.232;43.944;2022-12-10T04:52:04;8.30;;;3.43;;
69979;SDS011;57318;56.232;43.944;2022-12-10T04:54:31;8.48;;;3.80;;
69979;SDS011;57318;56.232;43.944;2022-12-10T04:56:57;5.10;;;3.10;;
69979;SDS011;57318;56.232;43.944;2022-12-10T04:59:22;5.00;;;3.43;;
69979;SDS011;57318;56.232;43.944;2022-12-10T05:01:48;8.00;;;3.85;;
69979;SDS011;57318;56.232;43.944;2022-12-10T05:04:14;8.20;;;3.97;;
69979;SDS011;57318;56.232;43.944;2022-12-10T05:06:42;8.40;;;3.50;;
69979;SDS011;57318;56.232;43.944;2022-12-10T05:09:10;5.20;;;2.78;;
69979;SDS011;57318;56.232;43.944;2022-12-10T05:14:03;9.40;;;3.78;;
69979;SDS011;57318;56.232;43.944;2022-12-10T05:16:29;7.90;;;4.30;;
69979;SDS011;57318;56.232;43.944;2022-12-10T05:18:56;8.68;;;3.95;;
69979;SDS011;57318;56.232;43.944;2022-12-10T05:21:23;5.90;;;3.33;;
69979;SDS011;57318;56.232;43.944;2022-12-10T05:24:10;8.90;;;3.97;;
69979;SDS011;57318;56.232;43.944;2022-12-10T05:26:36;8.43;;;3.88;;
69979;SDS011;57318;56.232;43.944;2022-12-10T05:29:02;9.93;;;3.80;;
69979;SDS011;57318;56.232;43.944;2022-12-10T05:31:28;6.03;;;3.30;;
69979;SDS011;57318;56.232;43.944;2022-12-10T05:33:55;5.43;;;3.17;;
69979;SDS011;57318;56.232;43.944;2022-12-10T05:36:24;6.43;;;3.15;;
69979;SDS011;57318;56.232;43.944;2022-12-10T05:38:51;7.55;;;3.53;;
69979;SDS011;57318;56.232;43.944;2022-12-10T05:41:18;6.97;;;2.90;;
69979;SDS011;57318;56.232;43.944;2022-12-10T05:43:46;8.32;;;3.58;;
69979;SDS011;57318;56.232;43.944;2022-12-10T05:46:14;6.55;;;2.70;;
69979;SDS011;57318;56.232;43.944;2022-12-10T05:48:41;8.82;;;3.83;;
69979;SDS011;57318;56.232;43.944;2022-12-10T05:51:09;6.00;;;3.00;;
69979;SDS011;57318;56.232;43.944;2022-12-10T05:53:37;6.75;;;3.63;;
69979;SDS011;57318;56.232;43.944;2022-12-10T05:56:04;7.82;;;3.50;;
69979;SDS011;57318;56.232;43.944;2022-12-10T05:58:31;6.55;;;3.10;;
69979;SDS011;57318;56.232;43.944;2022-12-10T06:00:57;8.25;;;4.20;;
69979;SDS011;57318;56.232;43.944;2022-12-10T06:03:24;5.30;;;3.10;;
69979;SDS011;57318;56.232;43.944;2022-12-10T06:05:51;7.53;;;3.80;;
69979;SDS011;57318;56.232;43.944;2022-12-10T06:08:17;6.15;;;3.50;;
69979;SDS011;57318;56.232;43.944;2022-12-10T06:10:43;8.83;;;4.27;;
69979;SDS011;57318;56.232;43.944;2022-12-10T06:13:08;7.30;;;3.23;;
69979;SDS011;57318;56.232;43.944;2022-12-10T06:15:37;8.63;;;3.65;;
69979;SDS011;57318;56.232;43.944;2022-12-10T06:18:04;9.77;;;3.75;;
69979;SDS011;57318;56.232;43.944;2022-12-10T06:20:30;7.63;;;3.50;;
69979;SDS011;57318;56.232;43.944;2022-12-10T06:22:55;8.13;;;3.50;;
69979;SDS011;57318;56.232;43.944;2022-12-10T06:25:21;11.13;;;3.37;;
69979;SDS011;57318;56.232;43.944;2022-12-10T06:27:47;6.80;;;3.97;;
69979;SDS011;57318;56.232;43.944;2022-12-10T06:30:12;7.03;;;3.60;;
69979;SDS011;57318;56.232;43.944;2022-12-10T06:32:38;8.77;;;4.10;;
69979;SDS011;57318;56.232;43.944;2022-12-10T06:35:04;8.32;;;2.85;;
69979;SDS011;57318;56.232;43.944;2022-12-10T06:37:30;9.38;;;3.40;;
69979;SDS011;57318;56.232;43.944;2022-12-10T06:39:56;8.03;;;3.60;;
69979;SDS011;57318;56.232;43.944;2022-12-10T06:42:21;7.97;;;3.70;;
69979;SDS011;57318;56.232;43.944;2022-12-10T06:44:47;7.73;;;3.47;;
69979;SDS011;57318;56.232;43.944;2022-12-10T06:47:13;10.05;;;4.05;;
69979;SDS011;57318;56.232;43.944;2022-12-10T06:49:39;9.32;;;3.85;;
69979;SDS011;57318;56.232;43.944;2022-12-10T06:52:05;7.63;;;3.80;;
69979;SDS011;57318;56.232;43.944;2022-12-10T06:54:31;8.90;;;4.00;;
69979;SDS011;57318;56.232;43.944;2022-12-10T06:56:57;11.70;;;4.27;;
69979;SDS011;57318;56.232;43.944;2022-12-10T06:59:23;6.90;;;3.97;;
69979;SDS011;57318;56.232;43.944;2022-12-10T07:01:48;8.33;;;3.90;;
69979;SDS011;57318;56.232;43.944;2022-12-10T07:04:14;9.53;;;4.53;;
69979;SDS011;57318;56.232;43.944;2022-12-10T07:06:40;8.10;;;4.27;;
69979;SDS011;57318;56.232;43.944;2022-12-10T07:09:05;7.47;;;4.30;;
69979;SDS011;57318;56.232;43.944;2022-12-10T07:11:31;10.27;;;4.30;;
69979;SDS011;57318;56.232;43.944;2022-12-10T07:13:57;5.53;;;3.35;;
69979;SDS011;57318;56.232;43.944;2022-12-10T07:16:25;9.18;;;3.95;;
69979;SDS011;57318;56.232;43.944;2022-12-10T07:18:53;10.05;;;4.22;;
69979;SDS011;57318;56.232;43.944;2022-12-10T07:21:21;7.07;;;3.80;;
69979;SDS011;57318;56.232;43.944;2022-12-10T07:23:47;8.77;;;4.13;;
69979;SDS011;57318;56.232;43.944;2022-12-10T07:26:13;8.85;;;3.92;;
69979;SDS011;57318;56.232;43.944;2022-12-10T07:28:39;9.00;;;4.10;;
69979;SDS011;57318;56.232;43.944;2022-12-10T07:31:06;10.43;;;4.23;;
69979;SDS011;57318;56.232;43.944;2022-12-10T07:33:33;9.35;;;4.20;;
69979;SDS011;57318;56.232;43.944;2022-12-10T07:35:59;11.77;;;4.57;;
69979;SDS011;57318;56.232;43.944;2022-12-10T07:38:28;8.57;;;4.18;;
69979;SDS011;57318;56.232;43.944;2022-12-10T07:40:54;9.00;;;4.50;;
69979;SDS011;57318;56.232;43.944;2022-12-10T07:43:19;8.30;;;4.80;;
69979;SDS011;57318;56.232;43.944;2022-12-10T07:45:45;7.63;;;3.80;;
69979;SDS011;57318;56.232;43.944;2022-12-10T07:48:10;8.40;;;3.63;;
69979;SDS011;57318;56.232;43.944;2022-12-10T07:50:36;6.93;;;3.83;;
69979;SDS011;57318;56.232;43.944;2022-12-10T07:53:02;9.47;;;3.87;;
69979;SDS011;57318;56.232;43.944;2022-12-10T07:55:27;12.33;;;5.03;;
69979;SDS011;57318;56.232;43.944;2022-12-10T07:57:53;9.83;;;4.10;;
69979;SDS011;57318;56.232;43.944;2022-12-10T08:00:18;10.20;;;4.10;;
69979;SDS011;57318;56.232;43.944;2022-12-10T08:02:44;9.30;;;3.73;;
69979;SDS011;57318;56.232;43.944;2022-12-10T08:05:09;12.63;;;4.60;;
69979;SDS011;57318;56.232;43.944;2022-12-10T08:07:35;13.40;;;4.65;;
69979;SDS011;57318;56.232;43.944;2022-12-10T08:10:02;7.88;;;3.33;;
69979;SDS011;57318;56.232;43.944;2022-12-10T08:12:28;8.27;;;4.00;;
69979;SDS011;57318;56.232;43.944;2022-12-10T08:14:54;8.47;;;3.67;;
69979;SDS011;57318;56.232;43.944;2022-12-10T08:17:19;9.00;;;3.93;;
69979;SDS011;57318;56.232;43.944;2022-12-10T08:19:45;10.73;;;5.07;;
69979;SDS011;57318;56.232;43.944;2022-12-10T08:22:10;10.53;;;4.97;;
69979;SDS011;57318;56.232;43.944;2022-12-10T08:24:36;10.27;;;5.10;;
69979;SDS011;57318;56.232;43.944;2022-12-10T08:27:02;7.70;;;3.70;;
69979;SDS011;57318;56.232;43.944;2022-12-10T08:29:28;9.97;;;4.40;;
69979;SDS011;57318;56.232;43.944;2022-12-10T08:31:53;11.50;;;4.90;;
69979;SDS011;57318;56.232;43.944;2022-12-10T08:34:19;11.00;;;4.37;;
69979;SDS011;57318;56.232;43.944;2022-12-10T08:36:45;7.33;;;3.87;;
69979;SDS011;57318;56.232;43.944;2022-12-10T08:39:11;9.13;;;4.18;;
69979;SDS011;57318;56.232;43.944;2022-12-10T08:41:40;7.50;;;3.75;;
69979;SDS011;57318;56.232;43.944;2022-12-10T08:44:07;8.15;;;3.65;;
69979;SDS011;57318;56.232;43.944;2022-12-10T08:46:33;8.77;;;4.33;;
69979;SDS011;57318;56.232;43.944;2022-12-10T08:48:58;9.03;;;4.10;;
69979;SDS011;57318;56.232;43.944;2022-12-10T08:51:29;6.73;;;3.47;;
69979;SDS011;57318;56.232;43.944;2022-12-10T08:53:56;7.82;;;3.53;;
69979;SDS011;57318;56.232;43.944;2022-12-10T08:56:21;6.87;;;3.40;;
69979;SDS011;57318;56.232;43.944;2022-12-10T08:58:47;7.80;;;4.07;;
69979;SDS011;57318;56.232;43.944;2022-12-10T09:01:14;7.70;;;3.23;;
69979;SDS011;57318;56.232;43.944;2022-12-10T09:03:41;11.30;;;4.05;;
69979;SDS011;57318;56.232;43.944;2022-12-10T09:06:08;11.33;;;4.23;;
69979;SDS011;57318;56.232;43.944;2022-12-10T09:08:35;7.40;;;3.75;;
69979;SDS011;57318;56.232;43.944;2022-12-10T09:11:14;7.50;;;3.70;;
69979;SDS011;57318;56.232;43.944;2022-12-10T09:13:42;9.95;;;4.03;;
69979;SDS011;57318;56.232;43.944;2022-12-10T09:16:08;8.10;;;4.60;;
69979;SDS011;57318;56.232;43.944;2022-12-10T09:18:34;10.60;;;4.57;;
69979;SDS011;57318;56.232;43.944;2022-12-10T09:21:00;9.53;;;3.87;;
69979;SDS011;57318;56.232;43.944;2022-12-10T09:23:30;9.50;;;4.50;;
69979;SDS011;57318;56.232;43.944;2022-12-10T09:25:55;7.17;;;3.87;;
69979;SDS011;57318;56.232;43.944;2022-12-10T09:28:21;8.73;;;4.10;;
69979;SDS011;57318;56.232;43.944;2022-12-10T09:30:54;8.90;;;4.23;;
69979;SDS011;57318;56.232;43.944;2022-12-10T09:33:25;12.63;;;4.20;;
69979;SDS011;57318;56.232;43.944;2022-12-10T09:35:51;9.13;;;4.20;;
69979;SDS011;57318;56.232;43.944;2022-12-10T09:38:17;10.30;;;4.20;;
69979;SDS011;57318;56.232;43.944;2022-12-10T09:40:48;7.83;;;3.77;;
69979;SDS011;57318;56.232;43.944;2022-12-10T09:43:23;8.93;;;4.00;;
69979;SDS011;57318;56.232;43.944;2022-12-10T09:48:38;11.80;;;3.72;;
69979;SDS011;57318;56.232;43.944;2022-12-10T09:53:45;8.15;;;4.10;;
69979;SDS011;57318;56.232;43.944;2022-12-10T09:56:21;7.30;;;3.45;;
69979;SDS011;57318;56.232;43.944;2022-12-10T09:58:52;9.15;;;3.97;;
69979;SDS011;57318;56.232;43.944;2022-12-10T10:01:19;10.40;;;3.85;;
69979;SDS011;57318;56.232;43.944;2022-12-10T10:03:48;9.45;;;4.45;;
69979;SDS011;57318;56.232;43.944;2022-12-10T10:06:14;9.90;;;4.30;;
69979;SDS011;57318;56.232;43.944;2022-12-10T10:08:42;7.50;;;3.42;;
69979;SDS011;57318;56.232;43.944;2022-12-10T10:11:34;8.13;;;3.25;;
69979;SDS011;57318;56.232;43.944;2022-12-10T10:14:04;11.50;;;4.10;;
69979;SDS011;57318;56.232;43.944;2022-12-10T10:19:18;8.45;;;4.00;;
69979;SDS011;57318;56.232;43.944;2022-12-10T10:21:49;9.90;;;4.30;;
69979;SDS011;57318;56.232;43.944;2022-12-10T10:24:16;9.30;;;3.50;;
69979;SDS011;57318;56.232;43.944;2022-12-10T10:26:56;9.48;;;3.70;;
69979;SDS011;57318;56.232;43.944;2022-12-10T10:29:26;9.77;;;4.38;;
69979;SDS011;57318;56.232;43.944;2022-12-10T10:34:47;14.13;;;5.20;;
69979;SDS011;57318;56.232;43.944;2022-12-10T10:37:22;10.23;;;4.13;;
69979;SDS011;57318;56.232;43.944;2022-12-10T10:39:52;11.38;;;4.53;;
69979;SDS011;57318;56.232;43.944;2022-12-10T10:42:28;13.90;;;6.50;;
69979;SDS011;57318;56.232;43.944;2022-12-10T10:44:59;13.55;;;5.35;;
69979;SDS011;57318;56.232;43.944;2022-12-10T10:47:28;13.93;;;5.83;;
69979;SDS011;57318;56.232;43.944;2022-12-10T10:49:55;14.57;;;5.43;;
69979;SDS011;57318;56.232;43.944;2022-12-10T10:52:22;16.23;;;5.82;;
69979;SDS011;57318;56.232;43.944;2022-12-10T10:54:48;13.10;;;6.45;;
69979;SDS011;57318;56.232;43.944;2022-12-10T11:00:18;12.05;;;6.20;;
69979;SDS011;57318;56.232;43.944;2022-12-10T11:02:47;15.13;;;4.72;;
69979;SDS011;57318;56.232;43.944;2022-12-10T11:05:19;12.07;;;5.80;;
69979;SDS011;57318;56.232;43.944;2022-12-10T11:07:57;14.75;;;5.97;;
69979;SDS011;57318;56.232;43.944;2022-12-10T11:10:25;13.20;;;5.22;;
69979;SDS011;57318;56.232;43.944;2022-12-10T11:12:58;10.57;;;5.25;;
69979;SDS011;57318;56.232;43.944;2022-12-10T11:18:03;12.30;;;5.75;;
69979;SDS011;57318;56.232;43.944;2022-12-10T11:20:56;10.95;;;4.93;;
69979;SDS011;57318;56.232;43.944;2022-12-10T11:23:30;8.25;;;4.68;;
69979;SDS011;57318;56.232;43.944;2022-12-10T11:26:20;12.25;;;5.40;;
69979;SDS011;57318;56.232;43.944;2022-12-10T11:29:09;13.60;;;5.10;;
69979;SDS011;57318;56.232;43.944;2022-12-10T11:37:13;14.27;;;6.18;;
69979;SDS011;57318;56.232;43.944;2022-12-10T11:59:02;16.92;;;7.70;;
69979;SDS011;57318;56.232;43.944;2022-12-10T12:13:21;15.18;;;6.60;;
69979;SDS011;57318;56.232;43.944;2022-12-10T12:16:04;16.02;;;7.05;;
69979;SDS011;57318;56.232;43.944;2022-12-10T12:18:40;18.73;;;7.97;;
69979;SDS011;57318;56.232;43.944;2022-12-10T12:21:13;20.88;;;7.72;;
69979;SDS011;57318;56.232;43.944;2022-12-10T12:23:58;17.30;;;7.47;;
69979;SDS011;57318;56.232;43.944;2022-12-10T12:26:37;13.57;;;6.43;;
69979;SDS011;57318;56.232;43.944;2022-12-10T12:34:56;14.52;;;6.28;;
69979;SDS011;57318;56.232;43.944;2022-12-10T12:37:29;13.02;;;6.80;;
69979;SDS011;57318;56.232;43.944;2022-12-10T12:42:42;18.40;;;8.52;;
69979;SDS011;57318;56.232;43.944;2022-12-10T12:45:24;14.65;;;6.97;;
69979;SDS011;57318;56.232;43.944;2022-12-10T12:48:12;15.15;;;7.13;;
69979;SDS011;57318;56.232;43.944;2022-12-10T12:53:27;17.63;;;7.88;;
69979;SDS011;57318;56.232;43.944;2022-12-10T12:56:07;20.42;;;8.27;;
69979;SDS011;57318;56.232;43.944;2022-12-10T12:59:01;24.05;;;10.93;;
69979;SDS011;57318;56.232;43.944;2022-12-10T13:04:21;19.75;;;8.85;;
69979;SDS011;57318;56.232;43.944;2022-12-10T13:12:27;26.30;;;10.10;;
69979;SDS011;57318;56.232;43.944;2022-12-10T13:15:00;20.55;;;8.20;;
69979;SDS011;57318;56.232;43.944;2022-12-10T13:39:04;25.70;;;10.77;;
69979;SDS011;57318;56.232;43.944;2022-12-10T13:41:41;19.70;;;9.73;;
69979;SDS011;57318;56.232;43.944;2022-12-10T13:44:46;17.15;;;7.15;;
69979;SDS011;57318;56.232;43.944;2022-12-10T13:47:31;19.15;;;7.75;;
69979;SDS011;57318;56.232;43.944;2022-12-10T13:50:01;20.38;;;9.15;;
69979;SDS011;57318;56.232;43.944;2022-12-10T13:52:49;19.63;;;8.88;;
69979;SDS011;57318;56.232;43.944;2022-12-10T13:55:20;17.95;;;8.50;;
69979;SDS011;57318;56.232;43.944;2022-12-10T14:06:20;15.65;;;6.97;;
69979;SDS011;57318;56.232;43.944;2022-12-10T14:11:25;21.27;;;9.45;;
69979;SDS011;57318;56.232;43.944;2022-12-10T14:13:55;17.58;;;9.07;;
69979;SDS011;57318;56.232;43.944;2022-12-10T14:16:24;21.77;;;9.65;;
69979;SDS011;57318;56.232;43.944;2022-12-10T14:19:01;25.63;;;10.25;;
69979;SDS011;57318;56.232;43.944;2022-12-10T14:21:31;27.50;;;10.98;;
69979;SDS011;57318;56.232;43.944;2022-12-10T14:24:01;27.45;;;11.00;;
69979;SDS011;57318;56.232;43.944;2022-12-10T14:26:32;40.38;;;13.88;;
69979;SDS011;57318;56.232;43.944;2022-12-10T14:29:21;36.55;;;13.90;;
69979;SDS011;57318;56.232;43.944;2022-12-10T14:31:49;36.88;;;13.20;;
69979;SDS011;57318;56.232;43.944;2022-12-10T14:34:21;23.55;;;10.13;;
69979;SDS011;57318;56.232;43.944;2022-12-10T14:36:56;26.90;;;10.45;;
69979;SDS011;57318;56.232;43.944;2022-12-10T14:39:27;21.53;;;9.23;;
69979;SDS011;57318;56.232;43.944;2022-12-10T14:41:56;21.25;;;9.35;;
69979;SDS011;57318;56.232;43.944;2022-12-10T14:44:23;21.88;;;10.63;;
69979;SDS011;57318;56.232;43.944;2022-12-10T14:46:50;26.13;;;11.15;;
69979;SDS011;57318;56.232;43.944;2022-12-10T14:49:26;26.03;;;9.63;;
69979;SDS011;57318;56.232;43.944;2022-12-10T14:51:52;21.13;;;9.23;;
69979;SDS011;57318;56.232;43.944;2022-12-10T14:54:33;22.25;;;10.02;;
69979;SDS011;57318;56.232;43.944;2022-12-10T14:57:01;24.60;;;9.85;;
69979;SDS011;57318;56.232;43.944;2022-12-10T14:59:36;24.63;;;10.05;;
69979;SDS011;57318;56.232;43.944;2022-12-10T15:02:45;21.63;;;9.45;;
69979;SDS011;57318;56.232;43.944;2022-12-10T15:07:57;22.00;;;8.05;;
69979;SDS011;57318;56.232;43.944;2022-12-10T15:10:32;14.38;;;6.60;;
69979;SDS011;57318;56.232;43.944;2022-12-10T15:12:59;19.10;;;7.88;;
69979;SDS011;57318;56.232;43.944;2022-12-10T15:15:37;17.92;;;8.00;;
69979;SDS011;57318;56.232;43.944;2022-12-10T15:28:31;20.13;;;8.13;;
69979;SDS011;57318;56.232;43.944;2022-12-10T15:31:10;27.35;;;10.35;;
69979;SDS011;57318;56.232;43.944;2022-12-10T15:33:41;26.60;;;10.43;;
69979;SDS011;57318;56.232;43.944;2022-12-10T15:36:25;23.90;;;9.85;;
69979;SDS011;57318;56.232;43.944;2022-12-10T15:39:19;20.45;;;8.80;;
69979;SDS011;57318;56.232;43.944;2022-12-10T15:41:49;20.50;;;8.68;;
69979;SDS011;57318;56.232;43.944;2022-12-10T15:44:54;21.92;;;10.50;;
69979;SDS011;57318;56.232;43.944;2022-12-10T15:47:20;21.25;;;8.05;;
69979;SDS011;57318;56.232;43.944;2022-12-10T15:49:48;21.25;;;8.52;;
69979;SDS011;57318;56.232;43.944;2022-12-10T15:52:16;22.70;;;8.05;;
69979;SDS011;57318;56.232;43.944;2022-12-10T15:54:48;20.20;;;7.95;;
69979;SDS011;57318;56.232;43.944;2022-12-10T15:57:15;16.23;;;7.28;;
69979;SDS011;57318;56.232;43.944;2022-12-10T15:59:44;13.02;;;6.30;;
69979;SDS011;57318;56.232;43.944;2022-12-10T16:05:13;17.48;;;7.13;;
69979;SDS011;57318;56.232;43.944;2022-12-10T16:07:44;16.65;;;7.28;;
69979;SDS011;57318;56.232;43.944;2022-12-10T16:10:11;17.45;;;7.50;;
69979;SDS011;57318;56.232;43.944;2022-12-10T16:12:39;18.27;;;7.07;;
69979;SDS011;57318;56.232;43.944;2022-12-10T16:17:33;15.07;;;7.68;;
69979;SDS011;57318;56.232;43.944;2022-12-10T16:20:18;15.47;;;6.50;;
69979;SDS011;57318;56.232;43.944;2022-12-10T16:22:51;18.52;;;6.97;;
69979;SDS011;57318;56.232;43.944;2022-12-10T16:25:17;20.75;;;7.75;;
69979;SDS011;57318;56.232;43.944;2022-12-10T16:27:43;20.30;;;8.57;;
69979;SDS011;57318;56.232;43.944;2022-12-10T16:30:13;14.98;;;5.80;;
69979;SDS011;57318;56.232;43.944;2022-12-10T16:32:42;20.33;;;8.10;;
69979;SDS011;57318;56.232;43.944;2022-12-10T16:35:07;16.30;;;6.93;;
69979;SDS011;57318;56.232;43.944;2022-12-10T16:37:33;16.42;;;7.00;;
69979;SDS011;57318;56.232;43.944;2022-12-10T16:39:59;12.35;;;6.53;;
69979;SDS011;57318;56.232;43.944;2022-12-10T16:42:25;19.83;;;8.23;;
69979;SDS011;57318;56.232;43.944;2022-12-10T16:44:51;15.05;;;7.43;;
69979;SDS011;57318;56.232;43.944;2022-12-10T16:47:17;17.37;;;6.10;;
69979;SDS011;57318;56.232;43.944;2022-12-10T16:49:42;16.63;;;7.27;;
69979;SDS011;57318;56.232;43.944;2022-12-10T16:52:12;14.63;;;6.03;;
69979;SDS011;57318;56.232;43.944;2022-12-10T16:54:39;15.48;;;6.75;;
69979;SDS011;57318;56.232;43.944;2022-12-10T16:57:09;17.60;;;7.47;;
69979;SDS011;57318;56.232;43.944;2022-12-10T16:59:37;19.13;;;7.07;;
69979;SDS011;57318;56.232;43.944;2022-12-10T17:02:02;16.50;;;7.20;;
69979;SDS011;57318;56.232;43.944;2022-12-10T17:04:31;14.60;;;6.80;;
69979;SDS011;57318;56.232;43.944;2022-12-10T17:06:56;20.43;;;7.60;;
69979;SDS011;57318;56.232;43.944;2022-12-10T17:09:22;19.83;;;8.10;;
69979;SDS011;57318;56.232;43.944;2022-12-10T17:11:47;19.07;;;8.00;;
69979;SDS011;57318;56.232;43.944;2022-12-10T17:14:24;21.58;;;8.77;;
69979;SDS011;57318;56.232;43.944;2022-12-10T17:17:01;18.03;;;8.23;;
69979;SDS011;57318;56.232;43.944;2022-12-10T17:19:29;23.33;;;8.60;;